sensor_id;sensor_type;location;lat;lon;timestamp;P1;durP1;ratioP1;P2;durP2;ratioP2
38851;SDS011;24605;50.092;9.182;2024-01-10T00:00:39;22.52;;;8.25;;
38851;SDS011;24605;50.092;9.182;2024-01-10T00:03:05;22.73;;;8.43;;
38851;SDS011;24605;50.092;9.182;2024-01-10T00:05:32;22.52;;;8.18;;
38851;SDS011;24605;50.092;9.182;2024-01-10T00:07:58;21.33;;;7.63;;
38851;SDS011;24605;50.092;9.182;2024-01-10T00:10:25;21.83;;;8.07;;
38851;SDS011;24605;50.092;9.182;2024-01-10T00:12:51;21.10;;;7.97;;
38851;SDS011;24605;50.092;9.182;2024-01-10T00:15:19;21.15;;;7.80;;
38851;SDS011;24605;50.092;9.182;2024-01-10T00:17:46;14.52;;;6.25;;
38851;SDS011;24605;50.092;9.182;2024-01-10T00:20:12;20.20;;;6.82;;
38851;SDS011;24605;50.092;9.182;2024-01-10T00:22:39;20.35;;;7.40;;
38851;SDS011;24605;50.092;9.182;2024-01-10T00:25:05;21.58;;;6.93;;
38851;SDS011;24605;50.092;9.182;2024-01-10T00:27:32;20.48;;;7.72;;
38851;SDS011;24605;50.092;9.182;2024-01-10T00:29:58;20.98;;;8.52;;
38851;SDS011;24605;50.092;9.182;2024-01-10T00:32:26;28.60;;;9.32;;
38851;SDS011;24605;50.092;9.182;2024-01-10T00:34:52;24.77;;;9.10;;
38851;SDS011;24605;50.092;9.182;2024-01-10T00:37:19;24.60;;;8.85;;
38851;SDS011;24605;50.092;9.182;2024-01-10T00:39:45;22.02;;;9.10;;
38851;SDS011;24605;50.092;9.182;2024-01-10T00:42:12;25.35;;;8.80;;
38851;SDS011;24605;50.092;9.182;2024-01-10T00:44:38;23.27;;;9.20;;
38851;SDS011;24605;50.092;9.182;2024-01-10T00:47:05;23.80;;;9.35;;
38851;SDS011;24605;50.092;9.182;2024-01-10T00:49:33;24.95;;;9.18;;
38851;SDS011;24605;50.092;9.182;2024-01-10T00:51:59;25.42;;;8.90;;
38851;SDS011;24605;50.092;9.182;2024-01-10T00:54:26;25.30;;;9.20;;
38851;SDS011;24605;50.092;9.182;2024-01-10T00:56:52;27.70;;;8.75;;
38851;SDS011;24605;50.092;9.182;2024-01-10T00:59:18;26.63;;;9.82;;
38851;SDS011;24605;50.092;9.182;2024-01-10T01:01:45;24.40;;;9.55;;
38851;SDS011;24605;50.092;9.182;2024-01-10T01:04:11;27.15;;;9.02;;
38851;SDS011;24605;50.092;9.182;2024-01-10T01:06:39;26.33;;;9.32;;
38851;SDS011;24605;50.092;9.182;2024-01-10T01:09:05;25.02;;;8.73;;
38851;SDS011;24605;50.092;9.182;2024-01-10T01:11:32;29.65;;;10.48;;
38851;SDS011;24605;50.092;9.182;2024-01-10T01:13:58;23.55;;;9.48;;
38851;SDS011;24605;50.092;9.182;2024-01-10T01:16:25;29.23;;;9.98;;
38851;SDS011;24605;50.092;9.182;2024-01-10T01:18:51;24.70;;;8.77;;
38851;SDS011;24605;50.092;9.182;2024-01-10T01:21:18;23.38;;;9.05;;
38851;SDS011;24605;50.092;9.182;2024-01-10T01:23:46;26.27;;;9.30;;
38851;SDS011;24605;50.092;9.182;2024-01-10T01:26:12;26.10;;;9.88;;
38851;SDS011;24605;50.092;9.182;2024-01-10T01:28:39;23.15;;;8.95;;
38851;SDS011;24605;50.092;9.182;2024-01-10T01:31:05;29.88;;;9.73;;
38851;SDS011;24605;50.092;9.182;2024-01-10T01:33:32;27.80;;;8.57;;
38851;SDS011;24605;50.092;9.182;2024-01-10T01:35:58;28.27;;;10.00;;
38851;SDS011;24605;50.092;9.182;2024-01-10T01:38:25;23.60;;;8.90;;
38851;SDS011;24605;50.092;9.182;2024-01-10T01:40:53;27.60;;;9.40;;
38851;SDS011;24605;50.092;9.182;2024-01-10T01:43:20;23.25;;;8.52;;
38851;SDS011;24605;50.092;9.182;2024-01-10T01:45:47;20.88;;;8.70;;
38851;SDS011;24605;50.092;9.182;2024-01-10T01:48:17;26.48;;;9.65;;
38851;SDS011;24605;50.092;9.182;2024-01-10T01:50:44;24.70;;;8.10;;
38851;SDS011;24605;50.092;9.182;2024-01-10T01:53:10;22.30;;;9.07;;
38851;SDS011;24605;50.092;9.182;2024-01-10T01:55:38;27.48;;;9.52;;
38851;SDS011;24605;50.092;9.182;2024-01-10T01:58:05;22.05;;;8.80;;
38851;SDS011;24605;50.092;9.182;2024-01-10T02:00:32;25.92;;;9.57;;
38851;SDS011;24605;50.092;9.182;2024-01-10T02:03:00;21.35;;;8.00;;
38851;SDS011;24605;50.092;9.182;2024-01-10T02:05:27;25.27;;;9.25;;
38851;SDS011;24605;50.092;9.182;2024-01-10T02:07:54;21.67;;;8.23;;
38851;SDS011;24605;50.092;9.182;2024-01-10T02:10:21;25.33;;;9.32;;
38851;SDS011;24605;50.092;9.182;2024-01-10T02:12:47;25.35;;;9.23;;
38851;SDS011;24605;50.092;9.182;2024-01-10T02:15:15;25.73;;;9.18;;
38851;SDS011;24605;50.092;9.182;2024-01-10T02:17:43;23.55;;;8.45;;
38851;SDS011;24605;50.092;9.182;2024-01-10T02:20:09;25.02;;;8.57;;
38851;SDS011;24605;50.092;9.182;2024-01-10T02:22:36;23.65;;;8.70;;
38851;SDS011;24605;50.092;9.182;2024-01-10T02:25:04;21.95;;;8.93;;
38851;SDS011;24605;50.092;9.182;2024-01-10T02:27:32;24.00;;;9.15;;
38851;SDS011;24605;50.092;9.182;2024-01-10T02:29:59;26.83;;;8.85;;
38851;SDS011;24605;50.092;9.182;2024-01-10T02:32:29;23.02;;;9.10;;
38851;SDS011;24605;50.092;9.182;2024-01-10T02:34:55;20.98;;;8.38;;
38851;SDS011;24605;50.092;9.182;2024-01-10T02:37:21;21.17;;;7.72;;
38851;SDS011;24605;50.092;9.182;2024-01-10T02:39:48;23.60;;;7.70;;
38851;SDS011;24605;50.092;9.182;2024-01-10T02:42:16;21.10;;;7.72;;
38851;SDS011;24605;50.092;9.182;2024-01-10T02:44:43;21.20;;;8.32;;
38851;SDS011;24605;50.092;9.182;2024-01-10T02:47:11;18.25;;;7.50;;
38851;SDS011;24605;50.092;9.182;2024-01-10T02:49:38;23.83;;;8.57;;
38851;SDS011;24605;50.092;9.182;2024-01-10T02:52:05;22.20;;;7.35;;
38851;SDS011;24605;50.092;9.182;2024-01-10T02:54:31;20.85;;;7.85;;
38851;SDS011;24605;50.092;9.182;2024-01-10T02:56:58;22.92;;;7.70;;
38851;SDS011;24605;50.092;9.182;2024-01-10T02:59:26;17.05;;;6.93;;
38851;SDS011;24605;50.092;9.182;2024-01-10T03:01:52;18.17;;;6.90;;
38851;SDS011;24605;50.092;9.182;2024-01-10T03:04:19;17.50;;;6.60;;
38851;SDS011;24605;50.092;9.182;2024-01-10T03:06:45;19.88;;;7.70;;
38851;SDS011;24605;50.092;9.182;2024-01-10T03:09:11;17.48;;;6.50;;
38851;SDS011;24605;50.092;9.182;2024-01-10T03:11:38;16.80;;;6.53;;
38851;SDS011;24605;50.092;9.182;2024-01-10T03:14:07;18.77;;;7.18;;
38851;SDS011;24605;50.092;9.182;2024-01-10T03:16:36;18.65;;;6.32;;
38851;SDS011;24605;50.092;9.182;2024-01-10T03:19:02;19.23;;;6.60;;
38851;SDS011;24605;50.092;9.182;2024-01-10T03:21:29;18.55;;;7.65;;
38851;SDS011;24605;50.092;9.182;2024-01-10T03:23:56;15.80;;;6.28;;
38851;SDS011;24605;50.092;9.182;2024-01-10T03:26:24;18.45;;;7.03;;
38851;SDS011;24605;50.092;9.182;2024-01-10T03:28:52;20.55;;;7.20;;
38851;SDS011;24605;50.092;9.182;2024-01-10T03:31:19;16.98;;;6.82;;
38851;SDS011;24605;50.092;9.182;2024-01-10T03:33:47;17.20;;;6.68;;
38851;SDS011;24605;50.092;9.182;2024-01-10T03:36:15;19.70;;;7.28;;
38851;SDS011;24605;50.092;9.182;2024-01-10T03:38:43;17.67;;;6.93;;
38851;SDS011;24605;50.092;9.182;2024-01-10T03:41:12;17.17;;;6.25;;
38851;SDS011;24605;50.092;9.182;2024-01-10T03:43:39;18.30;;;6.60;;
38851;SDS011;24605;50.092;9.182;2024-01-10T03:46:05;20.73;;;7.88;;
38851;SDS011;24605;50.092;9.182;2024-01-10T03:48:32;15.65;;;6.32;;
38851;SDS011;24605;50.092;9.182;2024-01-10T03:50:59;16.08;;;5.93;;
38851;SDS011;24605;50.092;9.182;2024-01-10T03:53:26;17.95;;;6.53;;
38851;SDS011;24605;50.092;9.182;2024-01-10T03:55:52;18.15;;;6.38;;
38851;SDS011;24605;50.092;9.182;2024-01-10T03:58:19;17.88;;;5.68;;
38851;SDS011;24605;50.092;9.182;2024-01-10T04:00:46;17.10;;;6.10;;
38851;SDS011;24605;50.092;9.182;2024-01-10T04:03:12;26.90;;;11.18;;
38851;SDS011;24605;50.092;9.182;2024-01-10T04:05:38;18.08;;;6.25;;
38851;SDS011;24605;50.092;9.182;2024-01-10T04:08:07;17.08;;;5.93;;
38851;SDS011;24605;50.092;9.182;2024-01-10T04:10:33;19.00;;;6.57;;
38851;SDS011;24605;50.092;9.182;2024-01-10T04:12:59;17.95;;;6.25;;
38851;SDS011;24605;50.092;9.182;2024-01-10T04:15:26;19.77;;;6.15;;
38851;SDS011;24605;50.092;9.182;2024-01-10T04:17:52;19.27;;;8.00;;
38851;SDS011;24605;50.092;9.182;2024-01-10T04:20:19;20.35;;;8.65;;
38851;SDS011;24605;50.092;9.182;2024-01-10T04:22:45;20.88;;;7.97;;
38851;SDS011;24605;50.092;9.182;2024-01-10T04:25:13;16.05;;;6.72;;
38851;SDS011;24605;50.092;9.182;2024-01-10T04:27:40;19.33;;;7.10;;
38851;SDS011;24605;50.092;9.182;2024-01-10T04:30:07;19.50;;;6.72;;
38851;SDS011;24605;50.092;9.182;2024-01-10T04:32:34;18.95;;;7.40;;
38851;SDS011;24605;50.092;9.182;2024-01-10T04:35:01;17.10;;;6.95;;
38851;SDS011;24605;50.092;9.182;2024-01-10T04:37:27;17.88;;;5.97;;
38851;SDS011;24605;50.092;9.182;2024-01-10T04:39:53;15.52;;;6.43;;
38851;SDS011;24605;50.092;9.182;2024-01-10T04:42:21;15.25;;;6.05;;
38851;SDS011;24605;50.092;9.182;2024-01-10T04:44:48;16.65;;;5.88;;
38851;SDS011;24605;50.092;9.182;2024-01-10T04:47:15;20.25;;;6.30;;
38851;SDS011;24605;50.092;9.182;2024-01-10T04:49:41;16.75;;;6.32;;
38851;SDS011;24605;50.092;9.182;2024-01-10T04:52:08;17.42;;;5.95;;
38851;SDS011;24605;50.092;9.182;2024-01-10T04:54:34;20.33;;;6.68;;
38851;SDS011;24605;50.092;9.182;2024-01-10T04:57:00;17.63;;;5.88;;
38851;SDS011;24605;50.092;9.182;2024-01-10T04:59:28;14.65;;;5.30;;
38851;SDS011;24605;50.092;9.182;2024-01-10T05:01:55;15.32;;;6.00;;
38851;SDS011;24605;50.092;9.182;2024-01-10T05:04:21;16.20;;;6.03;;
38851;SDS011;24605;50.092;9.182;2024-01-10T05:06:48;16.55;;;6.15;;
38851;SDS011;24605;50.092;9.182;2024-01-10T05:09:14;14.90;;;5.78;;
38851;SDS011;24605;50.092;9.182;2024-01-10T05:11:40;18.77;;;6.47;;
38851;SDS011;24605;50.092;9.182;2024-01-10T05:14:07;16.10;;;6.05;;
38851;SDS011;24605;50.092;9.182;2024-01-10T05:16:35;17.02;;;6.43;;
38851;SDS011;24605;50.092;9.182;2024-01-10T05:19:01;15.88;;;5.97;;
38851;SDS011;24605;50.092;9.182;2024-01-10T05:21:29;14.40;;;5.90;;
38851;SDS011;24605;50.092;9.182;2024-01-10T05:23:56;15.80;;;6.07;;
38851;SDS011;24605;50.092;9.182;2024-01-10T05:26:22;14.60;;;6.40;;
38851;SDS011;24605;50.092;9.182;2024-01-10T05:28:49;19.67;;;6.15;;
38851;SDS011;24605;50.092;9.182;2024-01-10T05:31:16;17.40;;;6.20;;
38851;SDS011;24605;50.092;9.182;2024-01-10T05:33:43;16.95;;;6.47;;
38851;SDS011;24605;50.092;9.182;2024-01-10T05:36:10;16.15;;;6.35;;
38851;SDS011;24605;50.092;9.182;2024-01-10T05:38:38;17.63;;;6.05;;
38851;SDS011;24605;50.092;9.182;2024-01-10T05:41:05;17.42;;;5.78;;
38851;SDS011;24605;50.092;9.182;2024-01-10T05:43:31;15.10;;;5.78;;
38851;SDS011;24605;50.092;9.182;2024-01-10T05:45:58;17.65;;;5.95;;
38851;SDS011;24605;50.092;9.182;2024-01-10T05:48:25;14.93;;;5.38;;
38851;SDS011;24605;50.092;9.182;2024-01-10T05:50:53;15.20;;;7.00;;
38851;SDS011;24605;50.092;9.182;2024-01-10T05:53:19;17.00;;;6.40;;
38851;SDS011;24605;50.092;9.182;2024-01-10T05:55:46;16.13;;;6.28;;
38851;SDS011;24605;50.092;9.182;2024-01-10T05:58:13;16.58;;;6.70;;
38851;SDS011;24605;50.092;9.182;2024-01-10T06:00:39;19.55;;;7.07;;
38851;SDS011;24605;50.092;9.182;2024-01-10T06:03:05;16.40;;;6.47;;
38851;SDS011;24605;50.092;9.182;2024-01-10T06:05:32;16.05;;;6.95;;
38851;SDS011;24605;50.092;9.182;2024-01-10T06:08:00;19.27;;;7.07;;
38851;SDS011;24605;50.092;9.182;2024-01-10T06:10:29;17.27;;;6.95;;
38851;SDS011;24605;50.092;9.182;2024-01-10T06:12:55;16.55;;;6.05;;
38851;SDS011;24605;50.092;9.182;2024-01-10T06:15:22;16.73;;;6.45;;
38851;SDS011;24605;50.092;9.182;2024-01-10T06:17:48;17.67;;;6.78;;
38851;SDS011;24605;50.092;9.182;2024-01-10T06:20:15;20.40;;;6.55;;
38851;SDS011;24605;50.092;9.182;2024-01-10T06:22:42;18.48;;;6.68;;
38851;SDS011;24605;50.092;9.182;2024-01-10T06:25:10;19.35;;;6.68;;
38851;SDS011;24605;50.092;9.182;2024-01-10T06:27:36;17.33;;;6.22;;
38851;SDS011;24605;50.092;9.182;2024-01-10T06:30:03;16.90;;;6.63;;
38851;SDS011;24605;50.092;9.182;2024-01-10T06:32:30;17.30;;;6.60;;
38851;SDS011;24605;50.092;9.182;2024-01-10T06:34:56;14.00;;;6.28;;
38851;SDS011;24605;50.092;9.182;2024-01-10T06:37:22;16.42;;;6.78;;
38851;SDS011;24605;50.092;9.182;2024-01-10T06:39:49;19.55;;;6.95;;
38851;SDS011;24605;50.092;9.182;2024-01-10T06:42:17;20.17;;;7.68;;
38851;SDS011;24605;50.092;9.182;2024-01-10T06:44:43;30.75;;;12.27;;
38851;SDS011;24605;50.092;9.182;2024-01-10T06:47:10;27.58;;;12.30;;
38851;SDS011;24605;50.092;9.182;2024-01-10T06:49:37;28.13;;;12.32;;
38851;SDS011;24605;50.092;9.182;2024-01-10T06:52:04;28.30;;;11.98;;
38851;SDS011;24605;50.092;9.182;2024-01-10T06:54:32;19.33;;;8.50;;
38851;SDS011;24605;50.092;9.182;2024-01-10T06:56:58;27.20;;;14.43;;
38851;SDS011;24605;50.092;9.182;2024-01-10T06:59:26;47.03;;;31.73;;
38851;SDS011;24605;50.092;9.182;2024-01-10T07:01:52;23.17;;;9.57;;
38851;SDS011;24605;50.092;9.182;2024-01-10T07:04:21;25.35;;;10.73;;
38851;SDS011;24605;50.092;9.182;2024-01-10T07:06:48;18.23;;;7.20;;
38851;SDS011;24605;50.092;9.182;2024-01-10T07:09:15;18.35;;;7.05;;
38851;SDS011;24605;50.092;9.182;2024-01-10T07:11:44;17.45;;;7.55;;
38851;SDS011;24605;50.092;9.182;2024-01-10T07:14:12;21.90;;;7.32;;
38851;SDS011;24605;50.092;9.182;2024-01-10T07:16:40;19.42;;;8.00;;
38851;SDS011;24605;50.092;9.182;2024-01-10T07:19:07;24.88;;;8.07;;
38851;SDS011;24605;50.092;9.182;2024-01-10T07:21:34;21.50;;;7.65;;
38851;SDS011;24605;50.092;9.182;2024-01-10T07:24:00;21.08;;;7.80;;
38851;SDS011;24605;50.092;9.182;2024-01-10T07:26:27;17.13;;;7.60;;
38851;SDS011;24605;50.092;9.182;2024-01-10T07:28:53;22.25;;;8.25;;
38851;SDS011;24605;50.092;9.182;2024-01-10T07:31:20;19.42;;;7.63;;
38851;SDS011;24605;50.092;9.182;2024-01-10T07:33:47;17.92;;;7.38;;
38851;SDS011;24605;50.092;9.182;2024-01-10T07:36:14;20.95;;;7.30;;
38851;SDS011;24605;50.092;9.182;2024-01-10T07:38:40;21.42;;;7.45;;
38851;SDS011;24605;50.092;9.182;2024-01-10T07:41:07;19.27;;;7.60;;
38851;SDS011;24605;50.092;9.182;2024-01-10T07:43:33;20.05;;;7.25;;
38851;SDS011;24605;50.092;9.182;2024-01-10T07:46:00;19.17;;;7.60;;
38851;SDS011;24605;50.092;9.182;2024-01-10T07:48:27;21.90;;;7.60;;
38851;SDS011;24605;50.092;9.182;2024-01-10T07:50:56;16.88;;;7.13;;
38851;SDS011;24605;50.092;9.182;2024-01-10T07:53:23;17.55;;;7.07;;
38851;SDS011;24605;50.092;9.182;2024-01-10T07:55:51;19.70;;;6.95;;
38851;SDS011;24605;50.092;9.182;2024-01-10T07:58:18;19.70;;;7.10;;
38851;SDS011;24605;50.092;9.182;2024-01-10T08:00:44;19.77;;;8.05;;
38851;SDS011;24605;50.092;9.182;2024-01-10T08:03:11;22.35;;;7.70;;
38851;SDS011;24605;50.092;9.182;2024-01-10T08:05:38;17.88;;;7.07;;
38851;SDS011;24605;50.092;9.182;2024-01-10T08:08:05;19.40;;;7.20;;
38851;SDS011;24605;50.092;9.182;2024-01-10T08:10:32;20.23;;;7.15;;
38851;SDS011;24605;50.092;9.182;2024-01-10T08:12:58;17.88;;;7.15;;
38851;SDS011;24605;50.092;9.182;2024-01-10T08:15:25;17.75;;;7.20;;
38851;SDS011;24605;50.092;9.182;2024-01-10T08:17:52;44.08;;;15.50;;
38851;SDS011;24605;50.092;9.182;2024-01-10T08:20:18;48.53;;;17.80;;
38851;SDS011;24605;50.092;9.182;2024-01-10T08:22:46;29.48;;;13.13;;
38851;SDS011;24605;50.092;9.182;2024-01-10T08:25:14;34.22;;;14.23;;
38851;SDS011;24605;50.092;9.182;2024-01-10T08:27:41;27.58;;;11.35;;
38851;SDS011;24605;50.092;9.182;2024-01-10T08:30:10;23.83;;;9.75;;
38851;SDS011;24605;50.092;9.182;2024-01-10T08:32:36;23.95;;;9.20;;
38851;SDS011;24605;50.092;9.182;2024-01-10T08:35:03;20.17;;;8.68;;
38851;SDS011;24605;50.092;9.182;2024-01-10T08:37:30;21.10;;;9.20;;
38851;SDS011;24605;50.092;9.182;2024-01-10T08:39:56;23.58;;;8.25;;
38851;SDS011;24605;50.092;9.182;2024-01-10T08:42:25;21.20;;;9.50;;
38851;SDS011;24605;50.092;9.182;2024-01-10T08:44:52;21.85;;;9.32;;
38851;SDS011;24605;50.092;9.182;2024-01-10T08:47:19;20.05;;;8.93;;
38851;SDS011;24605;50.092;9.182;2024-01-10T08:49:46;21.15;;;7.90;;
38851;SDS011;24605;50.092;9.182;2024-01-10T08:52:13;28.33;;;13.05;;
38851;SDS011;24605;50.092;9.182;2024-01-10T08:54:39;20.38;;;8.18;;
38851;SDS011;24605;50.092;9.182;2024-01-10T08:57:05;20.67;;;8.93;;
38851;SDS011;24605;50.092;9.182;2024-01-10T08:59:33;17.50;;;7.35;;
38851;SDS011;24605;50.092;9.182;2024-01-10T09:02:00;30.90;;;13.43;;
38851;SDS011;24605;50.092;9.182;2024-01-10T09:04:27;20.92;;;8.25;;
38851;SDS011;24605;50.092;9.182;2024-01-10T09:06:53;26.08;;;10.48;;
38851;SDS011;24605;50.092;9.182;2024-01-10T09:09:20;19.95;;;7.63;;
38851;SDS011;24605;50.092;9.182;2024-01-10T09:11:46;23.38;;;8.68;;
38851;SDS011;24605;50.092;9.182;2024-01-10T09:14:13;23.58;;;9.13;;
38851;SDS011;24605;50.092;9.182;2024-01-10T09:16:41;28.63;;;11.88;;
38851;SDS011;24605;50.092;9.182;2024-01-10T09:19:07;23.58;;;8.93;;
38851;SDS011;24605;50.092;9.182;2024-01-10T09:21:34;25.92;;;9.82;;
38851;SDS011;24605;50.092;9.182;2024-01-10T09:24:01;53.08;;;20.13;;
38851;SDS011;24605;50.092;9.182;2024-01-10T09:26:30;82.70;;;26.10;;
38851;SDS011;24605;50.092;9.182;2024-01-10T09:28:57;270.65;;;72.70;;
38851;SDS011;24605;50.092;9.182;2024-01-10T09:31:24;89.80;;;27.52;;
38851;SDS011;24605;50.092;9.182;2024-01-10T09:33:51;524.25;;;142.98;;
38851;SDS011;24605;50.092;9.182;2024-01-10T09:36:18;501.13;;;147.13;;
38851;SDS011;24605;50.092;9.182;2024-01-10T09:38:44;73.32;;;29.67;;
38851;SDS011;24605;50.092;9.182;2024-01-10T09:41:11;56.75;;;23.48;;
38851;SDS011;24605;50.092;9.182;2024-01-10T09:43:38;29.25;;;12.85;;
38851;SDS011;24605;50.092;9.182;2024-01-10T09:46:04;42.72;;;19.15;;
38851;SDS011;24605;50.092;9.182;2024-01-10T09:48:34;39.97;;;17.92;;
38851;SDS011;24605;50.092;9.182;2024-01-10T09:51:02;33.53;;;14.38;;
38851;SDS011;24605;50.092;9.182;2024-01-10T09:53:29;24.90;;;9.38;;
38851;SDS011;24605;50.092;9.182;2024-01-10T09:56:03;18.60;;;7.70;;
38851;SDS011;24605;50.092;9.182;2024-01-10T09:58:30;34.15;;;12.27;;
38851;SDS011;24605;50.092;9.182;2024-01-10T10:01:04;27.55;;;9.73;;
38851;SDS011;24605;50.092;9.182;2024-01-10T10:03:30;26.55;;;9.88;;
38851;SDS011;24605;50.092;9.182;2024-01-10T10:06:03;48.20;;;17.02;;
38851;SDS011;24605;50.092;9.182;2024-01-10T10:08:30;35.28;;;12.82;;
38851;SDS011;24605;50.092;9.182;2024-01-10T10:10:56;34.92;;;13.27;;
38851;SDS011;24605;50.092;9.182;2024-01-10T10:13:24;22.50;;;9.00;;
38851;SDS011;24605;50.092;9.182;2024-01-10T10:15:57;44.70;;;18.15;;
38851;SDS011;24605;50.092;9.182;2024-01-10T10:18:24;43.80;;;15.82;;
38851;SDS011;24605;50.092;9.182;2024-01-10T10:21:04;29.15;;;13.55;;
38851;SDS011;24605;50.092;9.182;2024-01-10T10:23:32;22.40;;;8.88;;
38851;SDS011;24605;50.092;9.182;2024-01-10T10:25:59;23.02;;;10.55;;
38851;SDS011;24605;50.092;9.182;2024-01-10T10:28:39;20.20;;;7.88;;
38851;SDS011;24605;50.092;9.182;2024-01-10T10:31:06;23.15;;;8.73;;
38851;SDS011;24605;50.092;9.182;2024-01-10T10:33:33;20.30;;;9.88;;
38851;SDS011;24605;50.092;9.182;2024-01-10T10:35:59;23.02;;;8.73;;
38851;SDS011;24605;50.092;9.182;2024-01-10T10:38:27;27.63;;;11.20;;
38851;SDS011;24605;50.092;9.182;2024-01-10T10:40:53;21.23;;;8.68;;
38851;SDS011;24605;50.092;9.182;2024-01-10T10:43:21;19.95;;;8.20;;
38851;SDS011;24605;50.092;9.182;2024-01-10T10:45:48;23.02;;;9.48;;
38851;SDS011;24605;50.092;9.182;2024-01-10T10:48:16;23.23;;;9.70;;
38851;SDS011;24605;50.092;9.182;2024-01-10T10:50:50;24.33;;;8.85;;
38851;SDS011;24605;50.092;9.182;2024-01-10T10:53:24;26.52;;;10.23;;
38851;SDS011;24605;50.092;9.182;2024-01-10T10:55:55;23.35;;;8.57;;
38851;SDS011;24605;50.092;9.182;2024-01-10T10:58:23;26.05;;;9.30;;
38851;SDS011;24605;50.092;9.182;2024-01-10T11:00:49;23.65;;;9.10;;
38851;SDS011;24605;50.092;9.182;2024-01-10T11:03:16;21.80;;;9.48;;
38851;SDS011;24605;50.092;9.182;2024-01-10T11:05:44;23.45;;;8.95;;
38851;SDS011;24605;50.092;9.182;2024-01-10T11:08:12;26.05;;;9.75;;
38851;SDS011;24605;50.092;9.182;2024-01-10T11:10:42;20.63;;;8.52;;
38851;SDS011;24605;50.092;9.182;2024-01-10T11:13:19;26.63;;;10.60;;
38851;SDS011;24605;50.092;9.182;2024-01-10T11:18:58;22.95;;;8.50;;
38851;SDS011;24605;50.092;9.182;2024-01-10T11:21:56;21.25;;;8.40;;
38851;SDS011;24605;50.092;9.182;2024-01-10T11:24:30;22.63;;;9.07;;
38851;SDS011;24605;50.092;9.182;2024-01-10T11:27:07;22.38;;;8.93;;
38851;SDS011;24605;50.092;9.182;2024-01-10T11:29:38;22.98;;;8.32;;
38851;SDS011;24605;50.092;9.182;2024-01-10T11:32:06;19.48;;;8.18;;
38851;SDS011;24605;50.092;9.182;2024-01-10T11:34:34;19.75;;;8.05;;
38851;SDS011;24605;50.092;9.182;2024-01-10T11:37:10;19.92;;;8.43;;
38851;SDS011;24605;50.092;9.182;2024-01-10T11:39:39;20.10;;;7.82;;
38851;SDS011;24605;50.092;9.182;2024-01-10T11:42:07;25.17;;;8.43;;
38851;SDS011;24605;50.092;9.182;2024-01-10T11:44:34;20.35;;;8.48;;
38851;SDS011;24605;50.092;9.182;2024-01-10T11:47:03;24.40;;;9.43;;
38851;SDS011;24605;50.092;9.182;2024-01-10T11:49:30;23.98;;;11.10;;
38851;SDS011;24605;50.092;9.182;2024-01-10T11:51:57;23.55;;;9.10;;
38851;SDS011;24605;50.092;9.182;2024-01-10T11:54:35;20.90;;;9.32;;
38851;SDS011;24605;50.092;9.182;2024-01-10T11:57:19;19.42;;;8.65;;
38851;SDS011;24605;50.092;9.182;2024-01-10T11:59:47;23.08;;;8.85;;
38851;SDS011;24605;50.092;9.182;2024-01-10T12:02:17;20.67;;;8.60;;
38851;SDS011;24605;50.092;9.182;2024-01-10T12:04:44;20.05;;;9.27;;
38851;SDS011;24605;50.092;9.182;2024-01-10T12:07:11;20.25;;;8.98;;
38851;SDS011;24605;50.092;9.182;2024-01-10T12:09:37;20.50;;;9.13;;
38851;SDS011;24605;50.092;9.182;2024-01-10T12:12:04;20.38;;;9.27;;
38851;SDS011;24605;50.092;9.182;2024-01-10T12:14:31;19.13;;;8.57;;
38851;SDS011;24605;50.092;9.182;2024-01-10T12:16:59;22.63;;;10.82;;
38851;SDS011;24605;50.092;9.182;2024-01-10T12:19:28;19.05;;;8.13;;
38851;SDS011;24605;50.092;9.182;2024-01-10T12:21:54;20.40;;;8.02;;
38851;SDS011;24605;50.092;9.182;2024-01-10T12:24:21;67.60;;;22.63;;
38851;SDS011;24605;50.092;9.182;2024-01-10T12:26:48;33.03;;;12.07;;
38851;SDS011;24605;50.092;9.182;2024-01-10T12:29:17;30.15;;;15.07;;
38851;SDS011;24605;50.092;9.182;2024-01-10T12:31:45;24.98;;;13.73;;
38851;SDS011;24605;50.092;9.182;2024-01-10T12:34:11;21.13;;;12.10;;
38851;SDS011;24605;50.092;9.182;2024-01-10T12:36:40;16.77;;;7.68;;
38851;SDS011;24605;50.092;9.182;2024-01-10T12:39:07;17.92;;;8.10;;
38851;SDS011;24605;50.092;9.182;2024-01-10T12:41:34;17.80;;;7.82;;
38851;SDS011;24605;50.092;9.182;2024-01-10T12:44:01;18.75;;;7.78;;
38851;SDS011;24605;50.092;9.182;2024-01-10T12:46:29;18.23;;;8.20;;
38851;SDS011;24605;50.092;9.182;2024-01-10T12:48:59;18.30;;;8.02;;
38851;SDS011;24605;50.092;9.182;2024-01-10T12:51:26;19.67;;;7.82;;
38851;SDS011;24605;50.092;9.182;2024-01-10T12:53:55;21.10;;;8.38;;
38851;SDS011;24605;50.092;9.182;2024-01-10T12:56:23;18.45;;;7.88;;
38851;SDS011;24605;50.092;9.182;2024-01-10T12:58:50;20.05;;;8.23;;
38851;SDS011;24605;50.092;9.182;2024-01-10T13:01:16;17.70;;;8.25;;
38851;SDS011;24605;50.092;9.182;2024-01-10T13:03:43;21.88;;;8.52;;
38851;SDS011;24605;50.092;9.182;2024-01-10T13:06:09;23.42;;;8.68;;
38851;SDS011;24605;50.092;9.182;2024-01-10T13:08:36;18.67;;;7.90;;
38851;SDS011;24605;50.092;9.182;2024-01-10T13:11:05;17.00;;;7.85;;
38851;SDS011;24605;50.092;9.182;2024-01-10T13:13:33;19.50;;;8.50;;
38851;SDS011;24605;50.092;9.182;2024-01-10T13:16:00;18.85;;;8.48;;
38851;SDS011;24605;50.092;9.182;2024-01-10T13:18:26;20.73;;;9.13;;
38851;SDS011;24605;50.092;9.182;2024-01-10T13:20:53;22.05;;;9.02;;
38851;SDS011;24605;50.092;9.182;2024-01-10T13:23:20;25.98;;;11.43;;
38851;SDS011;24605;50.092;9.182;2024-01-10T13:25:48;22.15;;;9.90;;
38851;SDS011;24605;50.092;9.182;2024-01-10T13:28:16;18.45;;;8.30;;
38851;SDS011;24605;50.092;9.182;2024-01-10T13:30:42;18.75;;;8.52;;
38851;SDS011;24605;50.092;9.182;2024-01-10T13:33:09;21.65;;;9.20;;
38851;SDS011;24605;50.092;9.182;2024-01-10T13:35:35;24.85;;;10.52;;
38851;SDS011;24605;50.092;9.182;2024-01-10T13:38:02;20.52;;;9.18;;
38851;SDS011;24605;50.092;9.182;2024-01-10T13:40:29;21.33;;;9.88;;
38851;SDS011;24605;50.092;9.182;2024-01-10T13:42:57;25.25;;;8.88;;
38851;SDS011;24605;50.092;9.182;2024-01-10T13:45:26;19.05;;;9.43;;
38851;SDS011;24605;50.092;9.182;2024-01-10T13:47:52;19.90;;;8.88;;
38851;SDS011;24605;50.092;9.182;2024-01-10T13:50:19;20.20;;;8.70;;
38851;SDS011;24605;50.092;9.182;2024-01-10T13:52:45;22.83;;;9.63;;
38851;SDS011;24605;50.092;9.182;2024-01-10T13:55:12;20.73;;;8.90;;
38851;SDS011;24605;50.092;9.182;2024-01-10T13:57:39;20.35;;;8.77;;
38851;SDS011;24605;50.092;9.182;2024-01-10T14:00:05;22.00;;;8.77;;
38851;SDS011;24605;50.092;9.182;2024-01-10T14:02:34;19.63;;;8.77;;
38851;SDS011;24605;50.092;9.182;2024-01-10T14:05:01;22.40;;;9.10;;
38851;SDS011;24605;50.092;9.182;2024-01-10T14:07:30;22.20;;;8.35;;
38851;SDS011;24605;50.092;9.182;2024-01-10T14:09:57;22.98;;;9.45;;
38851;SDS011;24605;50.092;9.182;2024-01-10T14:12:24;21.45;;;8.98;;
38851;SDS011;24605;50.092;9.182;2024-01-10T14:14:50;21.55;;;9.05;;
38851;SDS011;24605;50.092;9.182;2024-01-10T14:17:16;21.02;;;9.15;;
38851;SDS011;24605;50.092;9.182;2024-01-10T14:19:44;22.48;;;9.25;;
38851;SDS011;24605;50.092;9.182;2024-01-10T14:22:11;19.77;;;9.13;;
38851;SDS011;24605;50.092;9.182;2024-01-10T14:24:37;23.17;;;9.13;;
38851;SDS011;24605;50.092;9.182;2024-01-10T14:27:04;19.83;;;8.68;;
38851;SDS011;24605;50.092;9.182;2024-01-10T14:29:30;22.50;;;10.10;;
38851;SDS011;24605;50.092;9.182;2024-01-10T14:31:58;22.95;;;10.10;;
38851;SDS011;24605;50.092;9.182;2024-01-10T14:34:24;24.05;;;10.00;;
38851;SDS011;24605;50.092;9.182;2024-01-10T14:36:52;21.88;;;9.07;;